sensor_id;sensor_type;location;lat;lon;timestamp;temperature;humidity
64858;SHT30;51335;51.148;6.950;2023-02-28T00:00:04;-0.87;80.57
64858;SHT30;51335;51.148;6.950;2023-02-28T00:00:34;-0.93;80.37
64858;SHT30;51335;51.148;6.950;2023-02-28T00:01:05;-0.91;80.64
64858;SHT30;51335;51.148;6.950;2023-02-28T00:01:35;-0.94;80.69
64858;SHT30;51335;51.148;6.950;2023-02-28T00:02:05;-0.94;80.90
64858;SHT30;51335;51.148;6.950;2023-02-28T00:02:40;-0.97;80.83
64858;SHT30;51335;51.148;6.950;2023-02-28T00:03:11;-0.93;80.88
64858;SHT30;51335;51.148;6.950;2023-02-28T00:03:41;-1.00;80.68
64858;SHT30;51335;51.148;6.950;2023-02-28T00:04:11;-1.01;80.66
64858;SHT30;51335;51.148;6.950;2023-02-28T00:04:41;-1.04;80.85
64858;SHT30;51335;51.148;6.950;2023-02-28T00:05:14;-1.07;81.03
64858;SHT30;51335;51.148;6.950;2023-02-28T00:05:44;-1.14;81.07
64858;SHT30;51335;51.148;6.950;2023-02-28T00:06:15;-1.19;81.41
64858;SHT30;51335;51.148;6.950;2023-02-28T00:06:45;-1.19;81.48
64858;SHT30;51335;51.148;6.950;2023-02-28T00:07:15;-1.12;81.69
64858;SHT30;51335;51.148;6.950;2023-02-28T00:07:46;-1.14;81.72
64858;SHT30;51335;51.148;6.950;2023-02-28T00:08:17;-1.16;81.87
64858;SHT30;51335;51.148;6.950;2023-02-28T00:08:47;-1.19;81.77
64858;SHT30;51335;51.148;6.950;2023-02-28T00:09:17;-1.30;81.79
64858;SHT30;51335;51.148;6.950;2023-02-28T00:09:48;-1.34;82.04
64858;SHT30;51335;51.148;6.950;2023-02-28T00:10:20;-1.32;82.05
64858;SHT30;51335;51.148;6.950;2023-02-28T00:10:51;-1.41;82.26
64858;SHT30;51335;51.148;6.950;2023-02-28T00:11:21;-1.48;82.25
64858;SHT30;51335;51.148;6.950;2023-02-28T00:11:51;-1.48;82.32
64858;SHT30;51335;51.148;6.950;2023-02-28T00:12:22;-1.48;82.55
64858;SHT30;51335;51.148;6.950;2023-02-28T00:12:54;-1.52;82.71
64858;SHT30;51335;51.148;6.950;2023-02-28T00:13:25;-1.58;82.76
64858;SHT30;51335;51.148;6.950;2023-02-28T00:13:55;-1.63;82.77
64858;SHT30;51335;51.148;6.950;2023-02-28T00:14:25;-1.66;82.81
64858;SHT30;51335;51.148;6.950;2023-02-28T00:14:56;-1.66;82.86
64858;SHT30;51335;51.148;6.950;2023-02-28T00:15:26;-1.73;82.96
64858;SHT30;51335;51.148;6.950;2023-02-28T00:16:05;-1.77;83.05
64858;SHT30;51335;51.148;6.950;2023-02-28T00:16:35;-1.80;83.15
64858;SHT30;51335;51.148;6.950;2023-02-28T00:17:06;-1.83;83.46
64858;SHT30;51335;51.148;6.950;2023-02-28T00:17:37;-1.82;83.68
64858;SHT30;51335;51.148;6.950;2023-02-28T00:18:07;-1.86;83.79
64858;SHT30;51335;51.148;6.950;2023-02-28T00:18:38;-1.87;83.85
64858;SHT30;51335;51.148;6.950;2023-02-28T00:19:08;-1.93;83.90
64858;SHT30;51335;51.148;6.950;2023-02-28T00:19:38;-1.93;84.01
64858;SHT30;51335;51.148;6.950;2023-02-28T00:20:09;-1.98;84.05
64858;SHT30;51335;51.148;6.950;2023-02-28T00:20:40;-2.01;84.13
64858;SHT30;51335;51.148;6.950;2023-02-28T00:21:10;-2.03;84.23
64858;SHT30;51335;51.148;6.950;2023-02-28T00:21:40;-2.05;84.48
64858;SHT30;51335;51.148;6.950;2023-02-28T00:22:10;-2.08;84.58
64858;SHT30;51335;51.148;6.950;2023-02-28T00:22:47;-2.11;84.63
64858;SHT30;51335;51.148;6.950;2023-02-28T00:23:17;-2.10;84.82
64858;SHT30;51335;51.148;6.950;2023-02-28T00:23:48;-2.11;84.97
64858;SHT30;51335;51.148;6.950;2023-02-28T00:24:18;-2.14;85.27
64858;SHT30;51335;51.148;6.950;2023-02-28T00:24:48;-2.17;85.26
64858;SHT30;51335;51.148;6.950;2023-02-28T00:25:21;-2.18;85.28
64858;SHT30;51335;51.148;6.950;2023-02-28T00:25:52;-2.21;85.29
64858;SHT30;51335;51.148;6.950;2023-02-28T00:26:22;-2.24;85.48
64858;SHT30;51335;51.148;6.950;2023-02-28T00:26:52;-2.27;85.50
64858;SHT30;51335;51.148;6.950;2023-02-28T00:27:23;-2.20;85.56
64858;SHT30;51335;51.148;6.950;2023-02-28T00:27:53;-2.20;85.71
64858;SHT30;51335;51.148;6.950;2023-02-28T00:28:24;-2.20;85.74
64858;SHT30;51335;51.148;6.950;2023-02-28T00:28:54;-2.22;85.74
64858;SHT30;51335;51.148;6.950;2023-02-28T00:29:24;-2.22;85.67
64858;SHT30;51335;51.148;6.950;2023-02-28T00:29:55;-2.25;85.77
64858;SHT30;51335;51.148;6.950;2023-02-28T00:30:25;-2.21;85.72
64858;SHT30;51335;51.148;6.950;2023-02-28T00:30:55;-2.15;85.89
64858;SHT30;51335;51.148;6.950;2023-02-28T00:31:25;-2.11;85.90
64858;SHT30;51335;51.148;6.950;2023-02-28T00:31:56;-2.10;85.79
64858;SHT30;51335;51.148;6.950;2023-02-28T00:32:26;-2.14;85.90
64858;SHT30;51335;51.148;6.950;2023-02-28T00:32:56;-2.15;85.85
64858;SHT30;51335;51.148;6.950;2023-02-28T00:33:27;-2.15;85.78
64858;SHT30;51335;51.148;6.950;2023-02-28T00:33:57;-2.21;85.94
64858;SHT30;51335;51.148;6.950;2023-02-28T00:34:28;-2.21;86.05
64858;SHT30;51335;51.148;6.950;2023-02-28T00:34:59;-2.22;86.13
64858;SHT30;51335;51.148;6.950;2023-02-28T00:35:29;-2.22;86.29
64858;SHT30;51335;51.148;6.950;2023-02-28T00:36:08;-2.07;86.20
64858;SHT30;51335;51.148;6.950;2023-02-28T00:36:38;-2.05;85.95
64858;SHT30;51335;51.148;6.950;2023-02-28T00:37:09;-2.05;85.78
64858;SHT30;51335;51.148;6.950;2023-02-28T00:37:40;-2.07;85.68
64858;SHT30;51335;51.148;6.950;2023-02-28T00:38:11;-1.94;85.72
64858;SHT30;51335;51.148;6.950;2023-02-28T00:38:41;-1.91;85.94
64858;SHT30;51335;51.148;6.950;2023-02-28T00:39:11;-1.86;85.63
64858;SHT30;51335;51.148;6.950;2023-02-28T00:39:42;-1.89;85.44
64858;SHT30;51335;51.148;6.950;2023-02-28T00:40:12;-1.89;85.30
64858;SHT30;51335;51.148;6.950;2023-02-28T00:40:42;-1.91;85.15
64858;SHT30;51335;51.148;6.950;2023-02-28T00:41:12;-1.90;85.36
64858;SHT30;51335;51.148;6.950;2023-02-28T00:41:43;-1.91;85.33
64858;SHT30;51335;51.148;6.950;2023-02-28T00:42:13;-1.84;85.31
64858;SHT30;51335;51.148;6.950;2023-02-28T00:42:43;-1.86;85.19
64858;SHT30;51335;51.148;6.950;2023-02-28T00:43:13;-1.87;85.12
64858;SHT30;51335;51.148;6.950;2023-02-28T00:43:44;-1.90;85.24
64858;SHT30;51335;51.148;6.950;2023-02-28T00:44:14;-1.89;85.14
64858;SHT30;51335;51.148;6.950;2023-02-28T00:44:44;-1.89;85.45
64858;SHT30;51335;51.148;6.950;2023-02-28T00:45:15;-1.93;85.29
64858;SHT30;51335;51.148;6.950;2023-02-28T00:45:45;-1.87;85.27
64858;SHT30;51335;51.148;6.950;2023-02-28T00:46:15;-1.86;85.16
64858;SHT30;51335;51.148;6.950;2023-02-28T00:46:45;-1.84;85.03
64858;SHT30;51335;51.148;6.950;2023-02-28T00:47:16;-1.89;85.28
64858;SHT30;51335;51.148;6.950;2023-02-28T00:47:46;-1.84;85.18
64858;SHT30;51335;51.148;6.950;2023-02-28T00:48:16;-1.77;85.06
64858;SHT30;51335;51.148;6.950;2023-02-28T00:48:46;-1.76;84.92
64858;SHT30;51335;51.148;6.950;2023-02-28T00:49:17;-1.76;84.78
64858;SHT30;51335;51.148;6.950;2023-02-28T00:49:47;-1.74;84.83
64858;SHT30;51335;51.148;6.950;2023-02-28T00:50:19;-1.76;84.80
64858;SHT30;51335;51.148;6.950;2023-02-28T00:50:49;-1.77;84.76
64858;SHT30;51335;51.148;6.950;2023-02-28T00:51:19;-1.74;84.87
64858;SHT30;51335;51.148;6.950;2023-02-28T00:51:50;-1.74;84.80
64858;SHT30;51335;51.148;6.950;2023-02-28T00:52:20;-1.76;85.03
64858;SHT30;51335;51.148;6.950;2023-02-28T00:52:51;-1.76;84.82
64858;SHT30;51335;51.148;6.950;2023-02-28T00:53:21;-1.72;84.75
64858;SHT30;51335;51.148;6.950;2023-02-28T00:53:51;-1.69;85.05
64858;SHT30;51335;51.148;6.950;2023-02-28T00:54:22;-1.66;84.86
64858;SHT30;51335;51.148;6.950;2023-02-28T00:54:52;-1.59;84.58
64858;SHT30;51335;51.148;6.950;2023-02-28T00:55:22;-1.53;84.32
64858;SHT30;51335;51.148;6.950;2023-02-28T00:55:53;-1.48;84.21
64858;SHT30;51335;51.148;6.950;2023-02-28T00:56:23;-1.46;83.92
64858;SHT30;51335;51.148;6.950;2023-02-28T00:56:53;-1.48;83.78
64858;SHT30;51335;51.148;6.950;2023-02-28T00:57:23;-1.45;83.68
64858;SHT30;51335;51.148;6.950;2023-02-28T00:57:54;-1.32;83.54
64858;SHT30;51335;51.148;6.950;2023-02-28T00:58:24;-1.22;83.39
64858;SHT30;51335;51.148;6.950;2023-02-28T00:58:54;-1.18;83.07
64858;SHT30;51335;51.148;6.950;2023-02-28T00:59:25;-1.14;82.89
64858;SHT30;51335;51.148;6.950;2023-02-28T00:59:55;-1.12;82.78
64858;SHT30;51335;51.148;6.950;2023-02-28T01:00:25;-1.03;82.52
64858;SHT30;51335;51.148;6.950;2023-02-28T01:00:55;-1.03;82.18
64858;SHT30;51335;51.148;6.950;2023-02-28T01:01:26;-1.00;82.09
64858;SHT30;51335;51.148;6.950;2023-02-28T01:01:56;-1.05;82.00
64858;SHT30;51335;51.148;6.950;2023-02-28T01:02:26;-1.09;82.02
64858;SHT30;51335;51.148;6.950;2023-02-28T01:02:57;-1.16;82.24
64858;SHT30;51335;51.148;6.950;2023-02-28T01:03:27;-1.12;82.46
64858;SHT30;51335;51.148;6.950;2023-02-28T01:03:57;-1.14;82.55
64858;SHT30;51335;51.148;6.950;2023-02-28T01:04:27;-1.15;82.65
64858;SHT30;51335;51.148;6.950;2023-02-28T01:04:58;-1.22;82.53
64858;SHT30;51335;51.148;6.950;2023-02-28T01:05:28;-1.30;82.71
64858;SHT30;51335;51.148;6.950;2023-02-28T01:05:58;-1.32;82.80
64858;SHT30;51335;51.148;6.950;2023-02-28T01:06:29;-1.36;82.90
64858;SHT30;51335;51.148;6.950;2023-02-28T01:06:59;-1.41;83.35
64858;SHT30;51335;51.148;6.950;2023-02-28T01:07:29;-1.41;83.42
64858;SHT30;51335;51.148;6.950;2023-02-28T01:07:59;-1.42;83.50
64858;SHT30;51335;51.148;6.950;2023-02-28T01:08:30;-1.49;83.38
64858;SHT30;51335;51.148;6.950;2023-02-28T01:09:00;-1.48;83.52
64858;SHT30;51335;51.148;6.950;2023-02-28T01:09:30;-1.52;83.55
64858;SHT30;51335;51.148;6.950;2023-02-28T01:10:01;-1.53;83.63
64858;SHT30;51335;51.148;6.950;2023-02-28T01:10:31;-1.53;83.86
64858;SHT30;51335;51.148;6.950;2023-02-28T01:11:09;-1.56;83.90
64858;SHT30;51335;51.148;6.950;2023-02-28T01:11:41;-1.58;83.98
64858;SHT30;51335;51.148;6.950;2023-02-28T01:12:11;-1.60;84.04
64858;SHT30;51335;51.148;6.950;2023-02-28T01:12:41;-1.60;84.13
64858;SHT30;51335;51.148;6.950;2023-02-28T01:13:12;-1.52;84.46
64858;SHT30;51335;51.148;6.950;2023-02-28T01:13:44;-1.48;84.44
64858;SHT30;51335;51.148;6.950;2023-02-28T01:14:16;-1.45;84.42
64858;SHT30;51335;51.148;6.950;2023-02-28T01:14:46;-1.46;84.14
64858;SHT30;51335;51.148;6.950;2023-02-28T01:15:17;-1.48;83.98
64858;SHT30;51335;51.148;6.950;2023-02-28T01:15:53;-1.34;83.88
64858;SHT30;51335;51.148;6.950;2023-02-28T01:16:25;-1.34;83.93
64858;SHT30;51335;51.148;6.950;2023-02-28T01:16:56;-1.31;83.50
64858;SHT30;51335;51.148;6.950;2023-02-28T01:17:26;-1.28;83.20
64858;SHT30;51335;51.148;6.950;2023-02-28T01:17:56;-1.34;82.88
64858;SHT30;51335;51.148;6.950;2023-02-28T01:18:26;-1.36;82.97
64858;SHT30;51335;51.148;6.950;2023-02-28T01:18:57;-1.39;83.23
64858;SHT30;51335;51.148;6.950;2023-02-28T01:19:27;-1.32;83.50
64858;SHT30;51335;51.148;6.950;2023-02-28T01:19:57;-1.36;83.54
64858;SHT30;51335;51.148;6.950;2023-02-28T01:20:28;-1.32;83.45
64858;SHT30;51335;51.148;6.950;2023-02-28T01:20:58;-1.32;83.29
64858;SHT30;51335;51.148;6.950;2023-02-28T01:21:28;-1.28;83.33
64858;SHT30;51335;51.148;6.950;2023-02-28T01:22:03;-1.24;83.21
64858;SHT30;51335;51.148;6.950;2023-02-28T01:22:34;-1.31;83.08
64858;SHT30;51335;51.148;6.950;2023-02-28T01:23:05;-1.36;82.96
64858;SHT30;51335;51.148;6.950;2023-02-28T01:23:35;-1.39;83.12
64858;SHT30;51335;51.148;6.950;2023-02-28T01:24:06;-1.42;83.31
64858;SHT30;51335;51.148;6.950;2023-02-28T01:24:37;-1.51;83.45
64858;SHT30;51335;51.148;6.950;2023-02-28T01:25:07;-1.56;83.69
64858;SHT30;51335;51.148;6.950;2023-02-28T01:25:38;-1.59;83.82
64858;SHT30;51335;51.148;6.950;2023-02-28T01:26:17;-1.60;84.00
64858;SHT30;51335;51.148;6.950;2023-02-28T01:26:47;-1.63;84.25
64858;SHT30;51335;51.148;6.950;2023-02-28T01:27:17;-1.67;84.25
64858;SHT30;51335;51.148;6.950;2023-02-28T01:27:47;-1.67;84.01
64858;SHT30;51335;51.148;6.950;2023-02-28T01:28:18;-1.73;83.89
64858;SHT30;51335;51.148;6.950;2023-02-28T01:28:49;-1.73;83.84
64858;SHT30;51335;51.148;6.950;2023-02-28T01:29:20;-1.76;84.18
64858;SHT30;51335;51.148;6.950;2023-02-28T01:29:50;-1.72;84.52
64858;SHT30;51335;51.148;6.950;2023-02-28T01:30:21;-1.70;84.63
64858;SHT30;51335;51.148;6.950;2023-02-28T01:30:51;-1.76;84.60
64858;SHT30;51335;51.148;6.950;2023-02-28T01:31:22;-1.76;84.58
64858;SHT30;51335;51.148;6.950;2023-02-28T01:31:52;-1.80;84.66
64858;SHT30;51335;51.148;6.950;2023-02-28T01:32:23;-1.84;84.61
64858;SHT30;51335;51.148;6.950;2023-02-28T01:32:53;-1.80;84.84
64858;SHT30;51335;51.148;6.950;2023-02-28T01:33:23;-1.79;84.97
64858;SHT30;51335;51.148;6.950;2023-02-28T01:33:54;-1.80;84.93
64858;SHT30;51335;51.148;6.950;2023-02-28T01:34:24;-1.83;84.89
64858;SHT30;51335;51.148;6.950;2023-02-28T01:34:54;-1.84;84.94
64858;SHT30;51335;51.148;6.950;2023-02-28T01:35:25;-1.84;84.97
64858;SHT30;51335;51.148;6.950;2023-02-28T01:36:21;-1.90;84.90
64858;SHT30;51335;51.148;6.950;2023-02-28T01:36:52;-1.95;85.31
64858;SHT30;51335;51.148;6.950;2023-02-28T01:37:22;-1.97;85.30
64858;SHT30;51335;51.148;6.950;2023-02-28T01:37:52;-1.97;85.26
64858;SHT30;51335;51.148;6.950;2023-02-28T01:38:22;-2.03;85.25
64858;SHT30;51335;51.148;6.950;2023-02-28T01:38:53;-2.03;85.35
64858;SHT30;51335;51.148;6.950;2023-02-28T01:39:23;-2.05;85.47
64858;SHT30;51335;51.148;6.950;2023-02-28T01:39:53;-1.84;86.12
64858;SHT30;51335;51.148;6.950;2023-02-28T01:40:24;-1.82;86.30
64858;SHT30;51335;51.148;6.950;2023-02-28T01:40:54;-1.82;85.81
64858;SHT30;51335;51.148;6.950;2023-02-28T01:41:27;-1.86;85.58
64858;SHT30;51335;51.148;6.950;2023-02-28T01:41:58;-1.89;85.33
64858;SHT30;51335;51.148;6.950;2023-02-28T01:42:28;-1.86;85.33
64858;SHT30;51335;51.148;6.950;2023-02-28T01:42:59;-1.84;85.19
64858;SHT30;51335;51.148;6.950;2023-02-28T01:45:41;-1.91;84.59
64858;SHT30;51335;51.148;6.950;2023-02-28T01:46:12;-1.91;84.73
64858;SHT30;51335;51.148;6.950;2023-02-28T01:46:42;-1.89;84.82
64858;SHT30;51335;51.148;6.950;2023-02-28T01:47:13;-1.98;84.84
64858;SHT30;51335;51.148;6.950;2023-02-28T01:47:46;-2.01;84.94
64858;SHT30;51335;51.148;6.950;2023-02-28T01:48:18;-1.95;85.55
64858;SHT30;51335;51.148;6.950;2023-02-28T01:49:00;-2.01;85.66
64858;SHT30;51335;51.148;6.950;2023-02-28T01:49:32;-1.98;85.78
64858;SHT30;51335;51.148;6.950;2023-02-28T01:50:05;-1.97;85.74
64858;SHT30;51335;51.148;6.950;2023-02-28T01:50:40;-2.04;85.67
64858;SHT30;51335;51.148;6.950;2023-02-28T01:51:14;-2.07;85.76
64858;SHT30;51335;51.148;6.950;2023-02-28T01:51:48;-2.10;85.93
64858;SHT30;51335;51.148;6.950;2023-02-28T01:52:19;-2.14;86.07
64858;SHT30;51335;51.148;6.950;2023-02-28T01:52:51;-2.20;86.09
64858;SHT30;51335;51.148;6.950;2023-02-28T01:53:29;-2.24;86.33
64858;SHT30;51335;51.148;6.950;2023-02-28T01:54:09;-2.28;86.56
64858;SHT30;51335;51.148;6.950;2023-02-28T01:54:40;-2.24;86.89
64858;SHT30;51335;51.148;6.950;2023-02-28T01:55:12;-2.32;86.95
64858;SHT30;51335;51.148;6.950;2023-02-28T01:55:46;-2.34;87.05
64858;SHT30;51335;51.148;6.950;2023-02-28T01:56:20;-2.42;87.39
64858;SHT30;51335;51.148;6.950;2023-02-28T01:57:00;-2.44;87.85
64858;SHT30;51335;51.148;6.950;2023-02-28T01:57:38;-2.52;87.86
64858;SHT30;51335;51.148;6.950;2023-02-28T01:58:10;-2.55;87.94
64858;SHT30;51335;51.148;6.950;2023-02-28T01:58:40;-2.56;87.91
64858;SHT30;51335;51.148;6.950;2023-02-28T01:59:14;-2.59;87.96
64858;SHT30;51335;51.148;6.950;2023-02-28T02:00:22;-2.59;88.74
64858;SHT30;51335;51.148;6.950;2023-02-28T02:00:53;-2.65;88.92
64858;SHT30;51335;51.148;6.950;2023-02-28T02:01:26;-2.65;88.94
64858;SHT30;51335;51.148;6.950;2023-02-28T02:01:57;-2.66;89.12
64858;SHT30;51335;51.148;6.950;2023-02-28T02:02:28;-2.68;89.06
64858;SHT30;51335;51.148;6.950;2023-02-28T02:03:05;-2.70;88.95
64858;SHT30;51335;51.148;6.950;2023-02-28T02:03:36;-2.72;89.37
64858;SHT30;51335;51.148;6.950;2023-02-28T02:04:06;-2.70;89.37
64858;SHT30;51335;51.148;6.950;2023-02-28T02:04:40;-2.75;89.78
64858;SHT30;51335;51.148;6.950;2023-02-28T02:05:16;-2.79;89.52
64858;SHT30;51335;51.148;6.950;2023-02-28T02:05:46;-2.80;89.34
64858;SHT30;51335;51.148;6.950;2023-02-28T02:06:17;-2.80;89.42
64858;SHT30;51335;51.148;6.950;2023-02-28T02:06:48;-2.83;89.77
64858;SHT30;51335;51.148;6.950;2023-02-28T02:07:19;-2.84;90.10
64858;SHT30;51335;51.148;6.950;2023-02-28T02:07:55;-2.84;89.85
64858;SHT30;51335;51.148;6.950;2023-02-28T02:08:28;-2.87;89.86
64858;SHT30;51335;51.148;6.950;2023-02-28T02:08:59;-2.89;90.08
64858;SHT30;51335;51.148;6.950;2023-02-28T02:09:29;-2.89;89.99
64858;SHT30;51335;51.148;6.950;2023-02-28T02:10:05;-2.93;89.87
64858;SHT30;51335;51.148;6.950;2023-02-28T02:10:54;-2.96;89.84
64858;SHT30;51335;51.148;6.950;2023-02-28T02:11:25;-2.96;89.79
64858;SHT30;51335;51.148;6.950;2023-02-28T02:11:56;-3.00;89.81
64858;SHT30;51335;51.148;6.950;2023-02-28T02:15:12;-2.77;89.16
64858;SHT30;51335;51.148;6.950;2023-02-28T02:16:01;-2.72;89.04
64858;SHT30;51335;51.148;6.950;2023-02-28T02:17:46;-2.63;88.81
64858;SHT30;51335;51.148;6.950;2023-02-28T02:17:55;-2.61;88.81
64858;SHT30;51335;51.148;6.950;2023-02-28T02:21:42;-2.56;88.34
64858;SHT30;51335;51.148;6.950;2023-02-28T02:27:26;-2.40;88.60
64858;SHT30;51335;51.148;6.950;2023-02-28T02:30:45;-2.52;88.69
64858;SHT30;51335;51.148;6.950;2023-02-28T02:31:28;-2.59;88.78
64858;SHT30;51335;51.148;6.950;2023-02-28T02:32:17;-2.49;88.74
64858;SHT30;51335;51.148;6.950;2023-02-28T02:33:04;-2.49;88.62
64858;SHT30;51335;51.148;6.950;2023-02-28T02:35:28;-2.35;88.63
64858;SHT30;51335;51.148;6.950;2023-02-28T02:36:07;-2.31;88.65
64858;SHT30;51335;51.148;6.950;2023-02-28T02:36:43;-2.27;88.56
64858;SHT30;51335;51.148;6.950;2023-02-28T02:37:38;-2.35;88.38
64858;SHT30;51335;51.148;6.950;2023-02-28T02:38:19;-2.28;88.64
64858;SHT30;51335;51.148;6.950;2023-02-28T02:40:16;-2.25;88.24
64858;SHT30;51335;51.148;6.950;2023-02-28T02:41:40;-2.40;88.16
64858;SHT30;51335;51.148;6.950;2023-02-28T02:42:41;-2.37;88.42
64858;SHT30;51335;51.148;6.950;2023-02-28T02:43:32;-2.42;88.42
64858;SHT30;51335;51.148;6.950;2023-02-28T02:44:07;-2.45;88.54
64858;SHT30;51335;51.148;6.950;2023-02-28T02:44:45;-2.52;88.57
64858;SHT30;51335;51.148;6.950;2023-02-28T02:45:41;-2.61;88.80
64858;SHT30;51335;51.148;6.950;2023-02-28T02:46:17;-2.66;88.96
64858;SHT30;51335;51.148;6.950;2023-02-28T02:46:53;-2.70;89.17
64858;SHT30;51335;51.148;6.950;2023-02-28T02:47:27;-2.77;89.50
64858;SHT30;51335;51.148;6.950;2023-02-28T02:47:59;-2.79;89.53
64858;SHT30;51335;51.148;6.950;2023-02-28T02:48:33;-2.84;89.64
64858;SHT30;51335;51.148;6.950;2023-02-28T02:49:06;-2.84;89.79
64858;SHT30;51335;51.148;6.950;2023-02-28T02:49:40;-2.90;89.86
64858;SHT30;51335;51.148;6.950;2023-02-28T02:50:17;-2.94;89.95
64858;SHT30;51335;51.148;6.950;2023-02-28T02:50:53;-3.00;89.93
64858;SHT30;51335;51.148;6.950;2023-02-28T02:51:24;-3.03;90.11
64858;SHT30;51335;51.148;6.950;2023-02-28T02:51:57;-3.05;90.07
64858;SHT30;51335;51.148;6.950;2023-02-28T02:52:36;-3.10;90.16
64858;SHT30;51335;51.148;6.950;2023-02-28T02:53:09;-3.15;90.07
64858;SHT30;51335;51.148;6.950;2023-02-28T02:53:46;-3.21;90.22
64858;SHT30;51335;51.148;6.950;2023-02-28T02:54:20;-3.27;90.11
64858;SHT30;51335;51.148;6.950;2023-02-28T02:54:54;-3.30;90.26
64858;SHT30;51335;51.148;6.950;2023-02-28T02:55:26;-3.37;90.43
64858;SHT30;51335;51.148;6.950;2023-02-28T02:55:59;-3.41;90.63
64858;SHT30;51335;51.148;6.950;2023-02-28T02:56:33;-3.42;90.58
64858;SHT30;51335;51.148;6.950;2023-02-28T02:57:11;-3.48;90.71
64858;SHT30;51335;51.148;6.950;2023-02-28T02:57:54;-3.54;90.74
64858;SHT30;51335;51.148;6.950;2023-02-28T02:58:29;-3.59;90.83
64858;SHT30;51335;51.148;6.950;2023-02-28T02:59:04;-3.65;90.91
64858;SHT30;51335;51.148;6.950;2023-02-28T02:59:38;-3.66;91.21
64858;SHT30;51335;51.148;6.950;2023-02-28T03:00:10;-3.73;91.68
64858;SHT30;51335;51.148;6.950;2023-02-28T03:00:48;-3.78;91.92
64858;SHT30;51335;51.148;6.950;2023-02-28T03:01:23;-3.82;92.20
64858;SHT30;51335;51.148;6.950;2023-02-28T03:01:57;-3.86;92.28
64858;SHT30;51335;51.148;6.950;2023-02-28T03:02:29;-3.87;92.30
64858;SHT30;51335;51.148;6.950;2023-02-28T03:03:01;-3.89;92.26
64858;SHT30;51335;51.148;6.950;2023-02-28T03:03:32;-3.89;92.53
64858;SHT30;51335;51.148;6.950;2023-02-28T03:04:10;-3.86;92.58
64858;SHT30;51335;51.148;6.950;2023-02-28T03:04:52;-3.89;92.63
64858;SHT30;51335;51.148;6.950;2023-02-28T03:05:35;-3.89;92.64
64858;SHT30;51335;51.148;6.950;2023-02-28T03:06:08;-3.90;92.80
64858;SHT30;51335;51.148;6.950;2023-02-28T03:06:39;-3.90;92.88
64858;SHT30;51335;51.148;6.950;2023-02-28T03:07:09;-3.90;93.01
64858;SHT30;51335;51.148;6.950;2023-02-28T03:07:39;-3.83;93.40
64858;SHT30;51335;51.148;6.950;2023-02-28T03:08:10;-3.87;93.79
64858;SHT30;51335;51.148;6.950;2023-02-28T03:08:40;-3.87;93.86
64858;SHT30;51335;51.148;6.950;2023-02-28T03:09:10;-3.87;94.04
64858;SHT30;51335;51.148;6.950;2023-02-28T03:09:40;-3.87;94.33
64858;SHT30;51335;51.148;6.950;2023-02-28T03:10:48;-3.90;94.42
64858;SHT30;51335;51.148;6.950;2023-02-28T03:11:19;-3.91;94.43
64858;SHT30;51335;51.148;6.950;2023-02-28T03:11:53;-3.89;94.59
64858;SHT30;51335;51.148;6.950;2023-02-28T03:12:40;-3.90;94.61
64858;SHT30;51335;51.148;6.950;2023-02-28T03:14:37;-3.89;94.52
64858;SHT30;51335;51.148;6.950;2023-02-28T03:15:21;-3.90;94.58
64858;SHT30;51335;51.148;6.950;2023-02-28T03:17:55;-4.00;94.63
64858;SHT30;51335;51.148;6.950;2023-02-28T03:19:08;-4.03;94.76
64858;SHT30;51335;51.148;6.950;2023-02-28T03:21:37;-3.94;95.25
64858;SHT30;51335;51.148;6.950;2023-02-28T03:23:23;-3.96;95.32
64858;SHT30;51335;51.148;6.950;2023-02-28T03:25:33;-3.89;95.75
64858;SHT30;51335;51.148;6.950;2023-02-28T03:26:17;-3.86;96.27
64858;SHT30;51335;51.148;6.950;2023-02-28T03:26:55;-3.83;96.26
64858;SHT30;51335;51.148;6.950;2023-02-28T03:27:29;-3.83;96.07
64858;SHT30;51335;51.148;6.950;2023-02-28T03:28:22;-3.80;96.14
64858;SHT30;51335;51.148;6.950;2023-02-28T03:29:10;-3.79;95.96
64858;SHT30;51335;51.148;6.950;2023-02-28T03:29:47;-3.79;95.89
64858;SHT30;51335;51.148;6.950;2023-02-28T03:30:31;-3.78;95.85
64858;SHT30;51335;51.148;6.950;2023-02-28T03:31:26;-3.78;95.77
64858;SHT30;51335;51.148;6.950;2023-02-28T03:32:00;-3.59;95.73
64858;SHT30;51335;51.148;6.950;2023-02-28T03:32:38;-3.48;95.37
64858;SHT30;51335;51.148;6.950;2023-02-28T03:33:59;-3.49;95.04
64858;SHT30;51335;51.148;6.950;2023-02-28T03:34:06;-3.37;94.59
64858;SHT30;51335;51.148;6.950;2023-02-28T03:34:41;-3.32;94.22
64858;SHT30;51335;51.148;6.950;2023-02-28T03:35:22;-3.30;93.98
64858;SHT30;51335;51.148;6.950;2023-02-28T03:36:03;-3.30;93.81
64858;SHT30;51335;51.148;6.950;2023-02-28T03:36:41;-3.37;93.84
64858;SHT30;51335;51.148;6.950;2023-02-28T03:37:16;-3.32;93.87
64858;SHT30;51335;51.148;6.950;2023-02-28T03:37:53;-3.27;93.90
64858;SHT30;51335;51.148;6.950;2023-02-28T03:38:35;-3.21;93.84
64858;SHT30;51335;51.148;6.950;2023-02-28T03:39:07;-3.14;93.75
64858;SHT30;51335;51.148;6.950;2023-02-28T03:40:46;-3.00;93.39
64858;SHT30;51335;51.148;6.950;2023-02-28T03:41:23;-2.96;93.23
64858;SHT30;51335;51.148;6.950;2023-02-28T03:42:01;-3.03;93.16
64858;SHT30;51335;51.148;6.950;2023-02-28T03:42:34;-3.07;93.18
64858;SHT30;51335;51.148;6.950;2023-02-28T03:43:10;-3.10;93.26
64858;SHT30;51335;51.148;6.950;2023-02-28T03:43:47;-3.00;93.49
64858;SHT30;51335;51.148;6.950;2023-02-28T03:44:25;-2.91;93.31
64858;SHT30;51335;51.148;6.950;2023-02-28T03:45:20;-2.90;93.11
64858;SHT30;51335;51.148;6.950;2023-02-28T03:45:50;-2.84;92.82
64858;SHT30;51335;51.148;6.950;2023-02-28T03:46:25;-2.82;92.77
64858;SHT30;51335;51.148;6.950;2023-02-28T03:47:44;-2.79;92.58
64858;SHT30;51335;51.148;6.950;2023-02-28T03:48:27;-2.73;92.65
64858;SHT30;51335;51.148;6.950;2023-02-28T03:49:41;-2.61;92.16
64858;SHT30;51335;51.148;6.950;2023-02-28T03:50:24;-2.59;91.85
64858;SHT30;51335;51.148;6.950;2023-02-28T03:50:57;-2.56;91.67
64858;SHT30;51335;51.148;6.950;2023-02-28T03:51:29;-2.55;91.60
64858;SHT30;51335;51.148;6.950;2023-02-28T03:52:02;-2.56;91.53
64858;SHT30;51335;51.148;6.950;2023-02-28T03:52:35;-2.61;91.45
64858;SHT30;51335;51.148;6.950;2023-02-28T03:53:55;-2.80;91.52
64858;SHT30;51335;51.148;6.950;2023-02-28T03:54:31;-2.82;91.84
64858;SHT30;51335;51.148;6.950;2023-02-28T03:55:06;-2.79;92.07
64858;SHT30;51335;51.148;6.950;2023-02-28T03:55:42;-2.87;92.08
64858;SHT30;51335;51.148;6.950;2023-02-28T03:56:20;-2.84;92.29
64858;SHT30;51335;51.148;6.950;2023-02-28T03:56:58;-2.83;92.35
64858;SHT30;51335;51.148;6.950;2023-02-28T03:57:56;-2.94;92.10
64858;SHT30;51335;51.148;6.950;2023-02-28T03:59:22;-3.15;92.43
64858;SHT30;51335;51.148;6.950;2023-02-28T03:59:57;-3.24;92.79
64858;SHT30;51335;51.148;6.950;2023-02-28T04:00:42;-3.32;93.06
64858;SHT30;51335;51.148;6.950;2023-02-28T04:01:21;-3.35;93.38
64858;SHT30;51335;51.148;6.950;2023-02-28T04:01:52;-3.37;93.60
64858;SHT30;51335;51.148;6.950;2023-02-28T04:02:22;-3.41;93.71
64858;SHT30;51335;51.148;6.950;2023-02-28T04:02:53;-3.42;93.81
64858;SHT30;51335;51.148;6.950;2023-02-28T04:03:23;-3.42;94.15
64858;SHT30;51335;51.148;6.950;2023-02-28T04:03:54;-3.48;94.15
64858;SHT30;51335;51.148;6.950;2023-02-28T04:04:24;-3.49;94.33
64858;SHT30;51335;51.148;6.950;2023-02-28T04:04:54;-3.51;94.68